createdAt,value
2023-01-10T00:00:16.142Z,151.50
2023-01-10T00:05:41.141Z,144.70
2023-01-10T00:10:45.183Z,149.70
2023-01-10T00:15:49.511Z,151.30
2023-01-10T00:20:53.247Z,111.20
2023-01-10T00:25:57.073Z,204.20
2023-01-10T00:31:02.376Z,113.60
2023-01-10T00:36:09.101Z,172.90
2023-01-10T00:41:32.713Z,176.10
2023-01-10T00:46:36.458Z,179.60
2023-01-10T00:51:40.070Z,204.70
2023-01-10T00:56:43.685Z,133.20
2023-01-10T01:01:47.612Z,211.90
2023-01-10T01:06:51.621Z,221.50
2023-01-10T01:11:56.616Z,162.60
2023-01-10T01:17:00.239Z,179.80
2023-01-10T01:22:03.960Z,184.70
2023-01-10T01:27:07.477Z,153.20
2023-01-10T01:32:11.155Z,165.90
2023-01-10T01:37:15.262Z,162.80
2023-01-10T01:42:30.947Z,229.20
2023-01-10T01:47:41.916Z,173.50
2023-01-10T01:52:49.004Z,156.20
2023-01-10T01:57:58.136Z,208.60
2023-01-10T02:03:03.730Z,202.70
2023-01-10T02:08:08.635Z,142.50
2023-01-10T02:13:16.697Z,143.00
2023-01-10T02:18:22.685Z,165.20
2023-01-10T02:24:01.291Z,147.70
2023-01-10T02:29:32.153Z,161.80
2023-01-10T02:35:24.723Z,169.70
2023-01-10T02:40:50.691Z,150.40
2023-01-10T02:46:14.082Z,140.20
2023-01-10T02:51:24.341Z,118.60
2023-01-10T02:56:49.838Z,138.20
2023-01-10T03:02:03.835Z,182.00
2023-01-10T03:07:44.146Z,171.30
2023-01-10T03:13:16.070Z,243.80
2023-01-10T03:18:39.533Z,130.90
2023-01-10T03:23:45.254Z,128.70
2023-01-10T03:29:01.155Z,111.40
2023-01-10T03:34:05.302Z,128.20
2023-01-10T03:39:48.111Z,123.20
2023-01-10T03:45:09.624Z,127.60
2023-01-10T03:50:24.883Z,163.10
2023-01-10T03:55:30.405Z,420.00
2023-01-10T04:00:34.360Z,147.80
2023-01-10T04:05:38.306Z,102.80
2023-01-10T04:10:42.230Z,122.70
2023-01-10T04:15:46.016Z,104.80
2023-01-10T04:20:52.082Z,128.10
2023-01-10T04:25:56.052Z,139.50
2023-01-10T04:30:59.892Z,106.40
2023-01-10T04:36:03.636Z,141.80
2023-01-10T04:41:07.381Z,133.90
2023-01-10T04:46:11.207Z,164.50
2023-01-10T04:51:15.089Z,132.40
2023-01-10T04:56:21.885Z,136.30
2023-01-10T05:01:27.169Z,152.30
2023-01-10T05:06:31.033Z,135.40
2023-01-10T05:11:34.729Z,124.80
2023-01-10T05:16:38.537Z,139.50
2023-01-10T05:21:42.339Z,101.90
2023-01-10T05:26:46.952Z,198.20
2023-01-10T05:31:52.452Z,156.00
2023-01-10T05:36:56.094Z,118.50
2023-01-10T05:42:00.686Z,163.60
2023-01-10T05:47:04.581Z,129.80
2023-01-10T05:52:08.710Z,117.30
2023-01-10T05:57:12.686Z,76.20
2023-01-10T06:02:16.368Z,98.10
2023-01-10T06:07:20.007Z,132.40
2023-01-10T06:12:23.674Z,102.20
2023-01-10T06:17:27.962Z,93.10
2023-01-10T06:22:31.983Z,98.30
2023-01-10T06:27:35.716Z,94.90
2023-01-10T06:32:39.589Z,147.30
2023-01-10T06:37:43.576Z,113.90
2023-01-10T06:42:47.188Z,93.10
2023-01-10T06:47:50.894Z,66.10
2023-01-10T06:53:00.581Z,64.30
2023-01-10T06:58:05.398Z,132.40
2023-01-10T07:03:10.330Z,115.80
2023-01-10T07:08:13.801Z,126.50
2023-01-10T07:13:17.358Z,81.00
2023-01-10T07:18:21.247Z,145.70
2023-01-10T07:23:24.847Z,154.00
2023-01-10T07:28:28.617Z,123.10
2023-01-10T07:33:32.781Z,135.10
2023-01-10T07:38:38.371Z,125.70
2023-01-10T07:43:42.058Z,147.70
2023-01-10T07:48:47.258Z,55.20
2023-01-10T07:53:51.123Z,119.90
2023-01-10T07:58:54.854Z,115.20
2023-01-10T08:03:59.275Z,115.40
2023-01-10T08:09:05.649Z,119.20
2023-01-10T08:14:09.554Z,81.20
2023-01-10T08:19:17.267Z,104.20
2023-01-10T08:24:20.865Z,115.20
2023-01-10T08:29:24.715Z,118.60
2023-01-10T08:34:28.405Z,114.80
2023-01-10T08:39:32.105Z,113.50
2023-01-10T08:44:36.074Z,101.10
2023-01-10T08:49:39.747Z,82.20
2023-01-10T08:54:44.224Z,141.60
2023-01-10T08:59:48.088Z,124.30
2023-01-10T09:04:52.028Z,138.80
2023-01-10T09:09:55.677Z,121.90
2023-01-10T09:14:59.590Z,188.40
2023-01-10T09:20:10.539Z,138.60
2023-01-10T09:25:14.136Z,187.90
2023-01-10T09:30:18.255Z,204.50
2023-01-10T09:35:24.333Z,153.80
2023-01-10T09:41:22.076Z,149.40
2023-01-10T09:47:08.385Z,141.90
2023-01-10T09:52:33.980Z,114.70
2023-01-10T09:57:38.034Z,103.70
2023-01-10T10:02:48.424Z,97.10
2023-01-10T10:08:02.657Z,124.40
2023-01-10T10:13:26.460Z,109.20
2023-01-10T10:19:02.250Z,113.40
2023-01-10T10:24:33.270Z,107.30
2023-01-10T10:29:43.250Z,88.40
2023-01-10T10:35:09.942Z,137.50
2023-01-10T10:40:33.534Z,144.90
2023-01-10T10:45:44.883Z,110.10
2023-01-10T10:51:26.105Z,114.60
2023-01-10T10:56:30.915Z,141.90
2023-01-10T11:01:34.933Z,203.60
2023-01-10T11:06:46.328Z,199.70
2023-01-10T11:11:52.357Z,202.00
2023-01-10T11:17:28.340Z,139.80
2023-01-10T11:22:47.633Z,120.50
2023-01-10T11:28:01.330Z,109.20
2023-01-10T11:33:20.414Z,132.10
2023-01-10T11:43:40.561Z,55.70
2023-01-10T11:49:06.195Z,107.80
2023-01-10T11:54:29.456Z,85.20
2023-01-10T11:59:33.834Z,53.70
2023-01-10T12:04:47.524Z,106.40
2023-01-10T12:10:04.260Z,115.30
2023-01-10T12:15:30.151Z,102.80
2023-01-10T12:20:48.909Z,110.10
2023-01-10T12:26:10.674Z,125.90
2023-01-10T12:31:16.769Z,146.00
2023-01-10T12:37:31.042Z,118.20
2023-01-10T12:43:32.760Z,185.30
2023-01-10T12:48:54.165Z,173.60
2023-01-10T12:54:09.158Z,196.60
2023-01-10T12:59:37.157Z,222.50
2023-01-10T13:04:47.577Z,210.40
2023-01-10T13:09:52.155Z,219.20
2023-01-10T13:15:21.716Z,296.60
2023-01-10T13:20:39.877Z,103.60
2023-01-10T13:25:56.497Z,117.90
2023-01-10T13:31:32.865Z,158.30
2023-01-10T13:36:45.018Z,261.90
2023-01-10T13:42:26.421Z,195.00
2023-01-10T13:47:46.811Z,387.40
2023-01-10T13:52:52.947Z,345.50
2023-01-10T13:58:01.866Z,424.60
2023-01-10T14:03:06.848Z,500.40
2023-01-10T14:08:18.496Z,239.60
2023-01-10T14:13:23.906Z,188.60
2023-01-10T14:18:42.075Z,209.40
2023-01-10T14:23:53.527Z,159.50
2023-01-10T14:29:01.578Z,329.80
2023-01-10T14:34:18.472Z,384.80
2023-01-10T14:39:24.700Z,471.40
2023-01-10T14:44:37.691Z,259.60
2023-01-10T14:49:54.317Z,207.50
2023-01-10T14:55:22.854Z,251.70
2023-01-10T15:00:37.146Z,346.20
2023-01-10T15:05:50.451Z,407.50
2023-01-10T15:11:08.941Z,453.50
2023-01-10T15:16:23.421Z,371.80
2023-01-10T15:21:27.864Z,242.10
2023-01-10T15:26:33.824Z,457.80
2023-01-10T15:31:40.349Z,971.10
2023-01-10T15:36:51.709Z,446.80
2023-01-10T15:42:10.383Z,268.90
2023-01-10T15:47:49.990Z,406.60
2023-01-10T15:53:05.435Z,290.90
2023-01-10T15:58:36.815Z,252.80
2023-01-10T16:03:57.162Z,324.50
2023-01-10T16:09:06.428Z,497.90
2023-01-10T16:14:10.123Z,337.80
2023-01-10T16:19:14.746Z,461.80
2023-01-10T16:24:25.858Z,329.00
2023-01-10T16:29:30.168Z,488.20
2023-01-10T16:34:34.911Z,475.30
2023-01-10T16:39:40.612Z,735.20
2023-01-10T16:44:45.896Z,440.20
2023-01-10T16:49:49.649Z,321.00
2023-01-10T16:54:53.933Z,176.90
2023-01-10T16:59:57.665Z,273.50
2023-01-10T17:05:01.414Z,239.90
2023-01-10T17:10:06.461Z,216.30
2023-01-10T17:15:15.772Z,328.10
2023-01-10T17:20:20.615Z,216.90
2023-01-10T17:25:25.314Z,308.00
2023-01-10T17:30:28.940Z,419.90
2023-01-10T17:35:34.186Z,407.40
2023-01-10T17:40:45.982Z,567.30
2023-01-10T17:45:52.098Z,580.60
2023-01-10T17:51:00.185Z,536.30
2023-01-10T17:56:32.240Z,444.10
2023-01-10T18:01:36.500Z,582.20
2023-01-10T18:06:40.512Z,648.30
2023-01-10T18:11:45.575Z,523.60
2023-01-10T18:16:50.040Z,640.10
2023-01-10T18:21:53.883Z,448.00
2023-01-10T18:26:58.580Z,433.50
2023-01-10T18:32:02.728Z,1094.90
2023-01-10T18:37:06.703Z,1047.10
2023-01-10T18:42:12.222Z,614.10
2023-01-10T18:47:16.141Z,409.80
2023-01-10T18:52:21.695Z,413.60
2023-01-10T18:57:26.043Z,492.90
2023-01-10T19:02:30.182Z,620.00
2023-01-10T19:07:34.308Z,448.90
2023-01-10T19:12:41.052Z,728.50
2023-01-10T19:17:46.592Z,756.90
2023-01-10T19:22:50.288Z,615.30
2023-01-10T19:27:54.539Z,393.30
2023-01-10T19:33:17.549Z,400.20
2023-01-10T19:38:21.522Z,519.50
2023-01-10T19:43:26.893Z,297.20
2023-01-10T19:48:30.918Z,436.00
2023-01-10T19:53:39.486Z,317.60
2023-01-10T19:58:43.074Z,306.00
2023-01-10T20:03:49.290Z,290.10
2023-01-10T20:08:55.293Z,258.90
2023-01-10T20:14:02.277Z,238.20
2023-01-10T20:19:14.381Z,379.30
2023-01-10T20:24:21.842Z,239.20
2023-01-10T20:29:31.082Z,133.70
2023-01-10T20:34:35.384Z,205.50
2023-01-10T20:39:40.238Z,130.60
2023-01-10T20:44:44.034Z,186.60
2023-01-10T20:49:48.458Z,296.10
2023-01-10T20:54:54.990Z,337.40
2023-01-10T21:00:00.007Z,203.70
2023-01-10T21:05:04.369Z,245.00
2023-01-10T21:10:09.472Z,129.70
2023-01-10T21:15:13.625Z,187.80
2023-01-10T21:20:17.726Z,386.50
2023-01-10T21:25:21.635Z,284.30
2023-01-10T21:30:25.581Z,309.80
2023-01-10T21:35:29.870Z,238.00
2023-01-10T21:40:35.475Z,223.80
2023-01-10T21:45:42.626Z,146.10
2023-01-10T21:50:52.131Z,140.50
2023-01-10T21:56:00.405Z,227.70
2023-01-10T22:01:04.302Z,134.90
2023-01-10T22:06:08.688Z,129.40
2023-01-10T22:11:14.390Z,186.90
2023-01-10T22:16:20.348Z,237.90
2023-01-10T22:21:24.180Z,194.90
2023-01-10T22:26:28.877Z,254.20
2023-01-10T22:31:32.965Z,186.30
2023-01-10T22:36:37.721Z,247.50
2023-01-10T22:41:41.636Z,198.70
2023-01-10T22:46:46.554Z,204.80
2023-01-10T22:51:51.448Z,180.50
2023-01-10T22:56:55.236Z,169.20
2023-01-10T23:01:58.983Z,208.00
2023-01-10T23:07:03.042Z,168.70
2023-01-10T23:12:08.734Z,196.40
2023-01-10T23:17:12.715Z,131.70
2023-01-10T23:22:16.872Z,82.50
2023-01-10T23:27:20.937Z,136.40
2023-01-10T23:32:24.768Z,181.30
2023-01-10T23:37:28.714Z,107.30
2023-01-10T23:42:33.178Z,171.00
2023-01-10T23:47:37.675Z,204.90
2023-01-10T23:52:41.290Z,147.10
2023-01-10T23:57:45.732Z,189.40
